createdAt,value
2018-04-27T00:01:07.930Z,21.45
2018-04-27T00:03:35.418Z,21.12
2018-04-27T00:06:02.922Z,21.08
2018-04-27T00:08:30.453Z,20.10
2018-04-27T00:10:57.948Z,17.70
2018-04-27T00:13:25.465Z,18.60
2018-04-27T00:15:53.719Z,19.42
2018-04-27T00:18:21.218Z,17.65
2018-04-27T00:20:49.495Z,17.62
2018-04-27T00:23:16.997Z,19.40
2018-04-27T00:25:45.262Z,19.25
2018-04-27T00:28:12.762Z,20.12
2018-04-27T00:30:40.261Z,25.98
2018-04-27T00:33:07.777Z,21.12
2018-04-27T00:35:36.073Z,22.08
2018-04-27T00:38:04.332Z,21.85
2018-04-27T00:40:31.832Z,23.10
2018-04-27T00:43:00.079Z,21.33
2018-04-27T00:45:27.577Z,20.70
2018-04-27T00:47:57.028Z,23.95
2018-04-27T00:50:24.537Z,21.50
2018-04-27T00:53:07.942Z,18.55
2018-04-27T00:55:35.439Z,20.00
2018-04-27T00:58:06.941Z,21.92
2018-04-27T01:00:34.434Z,22.35
2018-04-27T01:03:02.729Z,24.63
2018-04-27T01:05:30.233Z,20.98
2018-04-27T01:07:57.738Z,24.08
2018-04-27T01:10:25.248Z,23.12
2018-04-27T01:12:52.733Z,20.42
2018-04-27T01:15:20.241Z,24.65
2018-04-27T01:17:47.747Z,23.25
2018-04-27T01:20:16.034Z,25.20
2018-04-27T01:22:44.345Z,25.15
2018-04-27T01:25:11.855Z,23.17
2018-04-27T01:27:39.365Z,25.20
2018-04-27T01:30:07.658Z,22.17
2018-04-27T01:32:35.926Z,24.98
2018-04-27T01:35:03.426Z,22.15
2018-04-27T01:37:30.938Z,23.23
2018-04-27T01:39:59.212Z,23.92
2018-04-27T01:42:26.734Z,25.48
2018-04-27T01:44:54.988Z,25.00
2018-04-27T01:47:22.498Z,27.00
2018-04-27T01:49:50.783Z,25.55
2018-04-27T01:52:19.063Z,25.60
2018-04-27T01:54:47.336Z,24.17
2018-04-27T01:57:14.827Z,23.67
2018-04-27T01:59:43.133Z,27.33
2018-04-27T02:02:10.683Z,22.85
2018-04-27T02:04:38.250Z,21.85
2018-04-27T02:07:05.749Z,23.23
2018-04-27T02:09:33.226Z,25.70
2018-04-27T02:12:00.684Z,21.70
2018-04-27T02:14:28.169Z,25.17
2018-04-27T02:16:55.629Z,23.83
2018-04-27T02:19:23.103Z,25.92
2018-04-27T02:21:50.571Z,28.40
2018-04-27T02:24:18.029Z,21.75
2018-04-27T02:26:46.289Z,23.52
2018-04-27T02:29:13.834Z,27.87
2018-04-27T02:31:41.295Z,24.08
2018-04-27T02:34:08.760Z,24.80
2018-04-27T02:36:36.245Z,23.83
2018-04-27T02:39:03.706Z,25.48
2018-04-27T02:41:31.191Z,24.45
2018-04-27T02:43:58.673Z,24.17
2018-04-27T02:46:26.227Z,24.58
2018-04-27T02:48:53.795Z,26.12
2018-04-27T02:51:21.282Z,23.70
2018-04-27T02:53:48.746Z,25.70
2018-04-27T02:56:16.322Z,23.30
2018-04-27T02:58:43.800Z,22.80
2018-04-27T03:01:11.355Z,24.10
2018-04-27T03:03:38.829Z,26.35
2018-04-27T03:06:06.308Z,29.60
2018-04-27T03:08:33.766Z,26.15
2018-04-27T03:11:01.254Z,23.23
2018-04-27T03:13:28.708Z,24.37
2018-04-27T03:15:56.181Z,24.63
2018-04-27T03:18:23.664Z,24.95
2018-04-27T03:20:51.136Z,23.98
2018-04-27T03:23:18.592Z,20.88
2018-04-27T03:25:46.065Z,21.75
2018-04-27T03:28:13.522Z,21.52
2018-04-27T03:30:41.015Z,22.87
2018-04-27T03:33:08.479Z,22.00
2018-04-27T03:35:35.953Z,20.85
2018-04-27T03:38:03.446Z,30.50
2018-04-27T03:40:30.906Z,25.27
2018-04-27T03:42:59.164Z,24.92
2018-04-27T03:45:26.707Z,25.27
2018-04-27T03:47:54.883Z,22.60
2018-04-27T03:50:22.350Z,24.12
2018-04-27T03:52:49.836Z,25.35
2018-04-27T03:55:17.292Z,22.80
2018-04-27T03:57:44.754Z,20.40
2018-04-27T04:00:24.066Z,23.65
2018-04-27T04:03:03.990Z,23.25
2018-04-27T04:05:32.391Z,20.73
2018-04-27T04:07:59.868Z,21.87
2018-04-27T04:10:28.865Z,21.92
2018-04-27T04:12:56.359Z,23.73
2018-04-27T04:15:23.916Z,23.38
2018-04-27T04:17:51.387Z,20.25
2018-04-27T04:20:18.878Z,22.65
2018-04-27T04:22:47.112Z,23.30
2018-04-27T04:25:14.566Z,22.62
2018-04-27T04:27:42.056Z,22.80
2018-04-27T04:30:09.531Z,22.48
2018-04-27T04:32:37.012Z,20.40
2018-04-27T04:35:04.781Z,21.27
2018-04-27T04:37:32.261Z,23.83
2018-04-27T04:39:59.841Z,20.15
2018-04-27T04:42:27.308Z,25.23
2018-04-27T04:44:54.792Z,23.25
2018-04-27T04:47:22.289Z,23.05
2018-04-27T04:49:49.749Z,21.23
2018-04-27T04:52:17.977Z,21.15
2018-04-27T04:54:45.480Z,22.00
2018-04-27T04:57:12.926Z,21.05
2018-04-27T04:59:40.406Z,20.80
2018-04-27T05:02:07.900Z,21.20
2018-04-27T05:04:35.708Z,24.67
2018-04-27T05:07:03.319Z,22.87
2018-04-27T05:09:30.809Z,24.10
2018-04-27T05:11:58.275Z,21.98
2018-04-27T05:14:25.783Z,22.67
2018-04-27T05:16:54.020Z,20.17
2018-04-27T05:19:21.483Z,19.98
2018-04-27T05:21:48.981Z,20.90
2018-04-27T05:24:16.468Z,19.85
2018-04-27T05:26:43.910Z,19.92
2018-04-27T05:29:11.366Z,19.35
2018-04-27T05:31:38.840Z,16.25
2018-04-27T05:34:06.346Z,18.50
2018-04-27T05:36:33.824Z,17.08
2018-04-27T05:39:02.995Z,21.95
2018-04-27T05:41:30.453Z,18.83
2018-04-27T05:43:57.932Z,20.20
2018-04-27T05:46:25.406Z,18.48
2018-04-27T05:48:52.890Z,16.12
2018-04-27T05:51:20.371Z,19.75
2018-04-27T05:53:49.748Z,18.52
2018-04-27T05:56:17.238Z,14.00
2018-04-27T05:58:44.690Z,16.27
2018-04-27T06:01:12.161Z,17.17
2018-04-27T06:03:51.497Z,19.03
2018-04-27T06:06:18.957Z,16.12
2018-04-27T06:08:46.423Z,15.43
2018-04-27T06:11:13.878Z,17.83
2018-04-27T06:13:41.343Z,17.98
2018-04-27T06:16:09.614Z,17.60
2018-04-27T06:18:37.069Z,17.20
2018-04-27T06:21:04.557Z,16.12
2018-04-27T06:23:32.800Z,16.70
2018-04-27T06:26:00.298Z,15.90
2018-04-27T06:28:27.768Z,14.30
2018-04-27T06:30:56.021Z,16.58
2018-04-27T06:33:23.489Z,16.52
2018-04-27T06:35:50.961Z,15.07
2018-04-27T06:38:18.420Z,14.00
2018-04-27T06:40:45.891Z,13.93
2018-04-27T06:43:13.376Z,15.45
2018-04-27T06:45:40.847Z,15.77
2018-04-27T06:48:08.325Z,16.37
2018-04-27T06:50:35.805Z,14.00
2018-04-27T06:53:03.258Z,13.95
2018-04-27T06:55:30.744Z,18.00
2018-04-27T06:57:58.215Z,14.35
2018-04-27T07:00:25.705Z,16.80
2018-04-27T07:02:53.949Z,12.95
2018-04-27T07:05:21.463Z,13.48
2018-04-27T07:07:48.937Z,13.77
2018-04-27T07:10:17.159Z,12.68
2018-04-27T07:12:44.629Z,13.60
2018-04-27T07:15:12.130Z,13.40
2018-04-27T07:17:39.609Z,12.55
2018-04-27T07:20:07.093Z,13.32
2018-04-27T07:22:34.554Z,14.60
2018-04-27T07:25:02.026Z,13.32
2018-04-27T07:27:29.510Z,14.90
2018-04-27T07:29:57.756Z,13.38
2018-04-27T07:32:25.244Z,11.60
2018-04-27T07:34:52.718Z,10.75
2018-04-27T07:37:20.193Z,9.48
2018-04-27T07:39:47.677Z,11.10
2018-04-27T07:42:15.895Z,8.45
2018-04-27T07:44:43.476Z,11.43
2018-04-27T07:47:10.960Z,12.13
2018-04-27T07:49:38.433Z,8.52
2018-04-27T07:52:05.906Z,9.38
2018-04-27T07:54:33.400Z,9.55
2018-04-27T07:57:00.873Z,9.27
2018-04-27T07:59:28.341Z,5.50
2018-04-27T08:01:55.829Z,11.32
2018-04-27T08:04:24.072Z,8.00
2018-04-27T08:06:51.541Z,9.27
2018-04-27T08:09:19.029Z,10.13
2018-04-27T08:11:46.494Z,14.18
2018-04-27T08:14:13.984Z,9.10
2018-04-27T08:16:41.442Z,9.48
2018-04-27T08:19:08.917Z,11.65
2018-04-27T08:21:36.378Z,10.50
2018-04-27T08:24:03.852Z,8.75
2018-04-27T08:26:31.322Z,9.52
2018-04-27T08:28:58.812Z,7.00
2018-04-27T08:31:27.061Z,13.90
2018-04-27T08:33:54.540Z,11.63
2018-04-27T08:36:22.018Z,9.77
2018-04-27T08:38:49.484Z,7.73
2018-04-27T08:41:16.961Z,8.38
2018-04-27T08:43:44.456Z,10.05
2018-04-27T08:46:12.685Z,8.73
2018-04-27T08:48:40.165Z,10.32
2018-04-27T08:51:07.623Z,8.48
2018-04-27T08:53:35.905Z,7.53
2018-04-27T08:56:03.362Z,7.50
2018-04-27T08:58:30.822Z,9.15
2018-04-27T09:00:58.286Z,7.12
2018-04-27T09:03:25.768Z,9.57
2018-04-27T09:05:53.234Z,6.78
2018-04-27T09:08:20.716Z,9.32
2018-04-27T09:10:48.200Z,9.80
2018-04-27T09:13:15.670Z,7.35
2018-04-27T09:15:43.135Z,8.30
2018-04-27T09:18:10.616Z,10.52
2018-04-27T09:20:38.070Z,9.15
2018-04-27T09:23:05.538Z,9.65
2018-04-27T09:25:33.011Z,6.72
2018-04-27T09:28:00.496Z,10.50
2018-04-27T09:30:27.984Z,8.50
2018-04-27T09:32:55.452Z,10.63
2018-04-27T09:35:22.926Z,12.88
2018-04-27T09:37:50.401Z,9.60
2018-04-27T09:40:17.866Z,7.97
2018-04-27T09:42:45.326Z,7.95
2018-04-27T09:45:12.815Z,10.20
2018-04-27T09:47:40.297Z,9.07
2018-04-27T09:50:08.644Z,12.25
2018-04-27T09:52:36.111Z,10.13
2018-04-27T09:55:04.341Z,10.17
2018-04-27T09:57:32.649Z,10.73
2018-04-27T10:00:00.074Z,9.10
2018-04-27T10:02:27.569Z,12.05
2018-04-27T10:04:55.794Z,8.18
2018-04-27T10:07:23.272Z,10.18
2018-04-27T10:09:51.184Z,7.82
2018-04-27T10:12:18.661Z,11.30
2018-04-27T10:14:46.146Z,8.93
2018-04-27T10:17:14.385Z,7.22
2018-04-27T10:19:41.853Z,8.90
2018-04-27T10:22:09.347Z,7.53
2018-04-27T10:24:36.821Z,8.45
2018-04-27T10:27:04.309Z,8.80
2018-04-27T10:29:33.378Z,8.23
2018-04-27T10:32:00.863Z,5.15
2018-04-27T10:34:28.341Z,10.85
2018-04-27T10:36:55.810Z,9.80
2018-04-27T10:39:23.281Z,8.90
2018-04-27T10:41:50.775Z,10.32
2018-04-27T10:44:19.014Z,8.38
2018-04-27T10:46:46.491Z,10.05
2018-04-27T10:49:13.976Z,8.57
2018-04-27T10:51:41.494Z,7.97
2018-04-27T10:54:08.968Z,8.10
2018-04-27T10:56:36.474Z,10.13
2018-04-27T10:59:03.957Z,7.78
2018-04-27T11:01:31.415Z,9.97
2018-04-27T11:03:58.916Z,8.45
2018-04-27T11:06:26.413Z,10.35
2018-04-27T11:08:53.862Z,6.87
2018-04-27T11:11:22.094Z,8.85
2018-04-27T11:13:49.559Z,7.03
2018-04-27T11:16:17.118Z,10.60
2018-04-27T11:18:44.540Z,7.43
2018-04-27T11:21:12.019Z,8.07
2018-04-27T11:23:40.638Z,7.82
2018-04-27T11:26:08.199Z,8.15
2018-04-27T11:28:35.609Z,12.27
2018-04-27T11:31:03.099Z,6.10
2018-04-27T11:33:30.577Z,8.98
2018-04-27T11:35:58.049Z,8.65
2018-04-27T11:38:25.540Z,11.25
2018-04-27T11:40:53.784Z,8.40
2018-04-27T11:43:21.247Z,9.20
2018-04-27T11:45:48.741Z,7.07
2018-04-27T11:48:16.213Z,6.80
2018-04-27T11:50:43.686Z,7.75
2018-04-27T11:53:11.210Z,9.70
2018-04-27T11:55:38.640Z,6.43
2018-04-27T11:58:06.877Z,8.10
2018-04-27T12:00:34.353Z,6.95
2018-04-27T12:03:01.852Z,6.50
2018-04-27T12:05:29.310Z,5.07
2018-04-27T12:07:56.794Z,7.35
2018-04-27T12:10:24.285Z,8.45
2018-04-27T12:12:52.510Z,8.70
2018-04-27T12:15:19.970Z,6.33
2018-04-27T12:17:47.475Z,7.65
2018-04-27T12:20:14.951Z,7.97
2018-04-27T12:22:42.520Z,6.78
2018-04-27T12:25:09.997Z,5.25
2018-04-27T12:27:37.469Z,5.57
2018-04-27T12:30:04.946Z,6.45
2018-04-27T12:32:32.412Z,5.62
2018-04-27T12:34:59.900Z,9.38
2018-04-27T12:37:27.371Z,5.07
2018-04-27T12:39:55.590Z,5.65
2018-04-27T12:42:23.080Z,5.55
2018-04-27T12:44:50.549Z,6.72
2018-04-27T12:47:18.037Z,5.45
2018-04-27T12:49:45.485Z,6.03
2018-04-27T12:52:12.973Z,4.95
2018-04-27T12:54:40.441Z,7.85
2018-04-27T12:57:07.899Z,7.60
2018-04-27T12:59:35.370Z,7.53
2018-04-27T13:02:02.830Z,7.33
2018-04-27T13:04:30.297Z,5.50
2018-04-27T13:06:57.770Z,4.13
2018-04-27T13:09:25.231Z,5.10
2018-04-27T13:11:52.933Z,4.50
2018-04-27T13:14:20.517Z,6.40
2018-04-27T13:16:47.982Z,5.13
2018-04-27T13:19:15.460Z,4.53
2018-04-27T13:21:42.929Z,4.77
2018-04-27T13:24:10.406Z,6.22
2018-04-27T13:26:37.871Z,7.20
2018-04-27T13:29:05.333Z,5.50
2018-04-27T13:31:32.795Z,7.83
2018-04-27T13:34:00.266Z,5.50
2018-04-27T13:36:27.739Z,7.20
2018-04-27T13:38:55.221Z,6.05
2018-04-27T13:41:23.489Z,6.50
2018-04-27T13:43:50.942Z,5.70
2018-04-27T13:46:19.188Z,5.40
2018-04-27T13:48:47.407Z,5.15
2018-04-27T13:51:14.897Z,5.70
2018-04-27T13:53:42.351Z,5.30
2018-04-27T13:56:09.871Z,5.00
2018-04-27T13:58:37.337Z,5.78
2018-04-27T14:01:04.804Z,4.95
2018-04-27T14:03:32.373Z,3.90
2018-04-27T14:06:00.618Z,5.75
2018-04-27T14:08:28.125Z,7.87
2018-04-27T14:10:55.686Z,5.60
2018-04-27T14:13:23.265Z,6.60
2018-04-27T14:15:50.741Z,7.20
2018-04-27T14:18:18.218Z,2.70
2018-04-27T14:20:46.536Z,6.53
2018-04-27T14:23:13.999Z,5.60
2018-04-27T14:25:41.483Z,5.87
2018-04-27T14:28:08.943Z,4.60
2018-04-27T14:30:36.426Z,5.00
2018-04-27T14:33:03.914Z,4.55
2018-04-27T14:35:31.370Z,5.70
2018-04-27T14:37:58.852Z,6.07
2018-04-27T14:40:26.314Z,5.72
2018-04-27T14:42:53.770Z,7.60
2018-04-27T14:45:21.251Z,5.90
2018-04-27T14:47:49.008Z,5.83
2018-04-27T14:50:16.505Z,4.45
2018-04-27T14:52:43.973Z,4.65
2018-04-27T14:55:11.453Z,6.60
2018-04-27T14:57:39.707Z,5.90
2018-04-27T15:00:07.158Z,5.20
2018-04-27T15:02:35.399Z,5.78
2018-04-27T15:05:02.905Z,5.90
2018-04-27T15:07:30.394Z,4.40
2018-04-27T15:10:02.349Z,4.20
2018-04-27T15:12:29.842Z,3.87
2018-04-27T15:14:58.098Z,4.85
2018-04-27T15:17:25.556Z,4.60
2018-04-27T15:19:53.145Z,4.20
2018-04-27T15:22:20.717Z,6.60
2018-04-27T15:24:48.186Z,5.90
2018-04-27T15:27:15.763Z,6.18
2018-04-27T15:29:43.328Z,5.50
2018-04-27T15:32:10.903Z,6.50
2018-04-27T15:34:38.358Z,7.05
2018-04-27T15:37:05.815Z,4.10
2018-04-27T15:39:33.286Z,6.32
2018-04-27T15:42:00.753Z,6.60
2018-04-27T15:44:28.245Z,6.05
2018-04-27T15:46:55.794Z,5.23
2018-04-27T15:49:23.282Z,5.97
2018-04-27T15:51:50.865Z,7.30
2018-04-27T15:54:18.437Z,5.10
2018-04-27T15:56:45.993Z,3.85
2018-04-27T15:59:13.450Z,6.18
2018-04-27T16:01:40.925Z,4.90
2018-04-27T16:04:08.377Z,6.72
2018-04-27T16:06:35.872Z,6.93
2018-04-27T16:09:03.340Z,6.22
2018-04-27T16:11:30.842Z,4.83
2018-04-27T16:13:59.129Z,6.62
2018-04-27T16:16:28.368Z,7.28
2018-04-27T16:18:56.597Z,7.07
2018-04-27T16:21:24.094Z,20.80
2018-04-27T16:23:52.374Z,10.45
2018-04-27T16:26:30.697Z,68.90
2018-04-27T16:28:58.213Z,36.97
2018-04-27T16:31:25.759Z,45.67
2018-04-27T16:33:53.186Z,35.15
2018-04-27T16:36:20.762Z,19.42
2018-04-27T16:38:48.225Z,9.45
2018-04-27T16:41:15.678Z,4.95
2018-04-27T16:43:43.188Z,98.82
2018-04-27T16:46:10.639Z,10.80
2018-04-27T16:48:38.233Z,19.17
2018-04-27T16:51:05.699Z,12.40
2018-04-27T16:53:33.189Z,10.82
2018-04-27T16:56:01.458Z,15.60
2018-04-27T16:58:28.937Z,21.37
2018-04-27T17:00:57.225Z,22.75
2018-04-27T17:03:24.767Z,50.17
2018-04-27T17:05:52.254Z,26.02
2018-04-27T17:08:19.733Z,9.35
2018-04-27T17:10:47.202Z,7.20
2018-04-27T17:13:14.685Z,9.88
2018-04-27T17:15:42.924Z,9.10
2018-04-27T17:18:10.403Z,8.50
2018-04-27T17:20:37.892Z,5.03
2018-04-27T17:23:05.444Z,7.87
2018-04-27T17:25:32.910Z,5.70
2018-04-27T17:28:00.401Z,17.02
2018-04-27T17:30:27.958Z,40.42
2018-04-27T17:32:55.426Z,10.27
2018-04-27T17:35:23.055Z,11.95
2018-04-27T17:37:50.577Z,13.07
2018-04-27T17:40:18.189Z,25.98
2018-04-27T17:42:45.662Z,7.53
2018-04-27T17:45:13.131Z,9.57
2018-04-27T17:47:40.673Z,10.10
2018-04-27T17:50:08.236Z,23.92
2018-04-27T17:52:35.706Z,19.03
2018-04-27T17:55:03.277Z,15.38
2018-04-27T17:57:31.537Z,10.60
2018-04-27T17:59:59.015Z,8.20
2018-04-27T18:02:26.475Z,26.80
2018-04-27T18:04:53.952Z,10.15
2018-04-27T18:07:21.411Z,12.32
2018-04-27T18:09:48.912Z,8.85
2018-04-27T18:12:16.567Z,6.37
2018-04-27T18:14:43.956Z,6.13
2018-04-27T18:17:11.445Z,5.82
2018-04-27T18:19:39.669Z,9.15
2018-04-27T18:22:07.208Z,8.75
2018-04-27T18:24:35.461Z,6.32
2018-04-27T18:27:03.051Z,9.57
2018-04-27T18:29:30.606Z,7.45
2018-04-27T18:31:58.070Z,9.02
2018-04-27T18:34:25.533Z,10.02
2018-04-27T18:36:53.033Z,5.90
2018-04-27T18:39:20.674Z,6.70
2018-04-27T18:41:48.845Z,14.10
2018-04-27T18:44:16.326Z,9.70
2018-04-27T18:46:43.818Z,11.40
2018-04-27T18:49:11.301Z,11.88
2018-04-27T18:51:38.788Z,16.35
2018-04-27T18:54:07.022Z,18.57
2018-04-27T18:56:37.065Z,20.33
2018-04-27T18:59:04.662Z,17.37
2018-04-27T19:01:32.228Z,13.90
2018-04-27T19:03:59.695Z,8.13
2018-04-27T19:06:27.268Z,10.63
2018-04-27T19:08:54.875Z,7.10
2018-04-27T19:11:23.132Z,7.18
2018-04-27T19:13:50.621Z,7.47
2018-04-27T19:16:18.864Z,8.23
2018-04-27T19:18:46.360Z,7.12
2018-04-27T19:21:24.530Z,7.80
2018-04-27T19:23:52.798Z,5.15
2018-04-27T19:26:21.014Z,5.97
2018-04-27T19:28:48.470Z,6.45
2018-04-27T19:31:15.978Z,15.90
2018-04-27T19:33:43.486Z,21.70
2018-04-27T19:36:11.724Z,44.00
2018-04-27T19:38:39.199Z,42.55
2018-04-27T19:41:07.475Z,22.07
2018-04-27T19:43:34.938Z,15.80
2018-04-27T19:46:02.420Z,9.00
2018-04-27T19:48:30.671Z,7.60
2018-04-27T19:50:58.142Z,7.95
2018-04-27T19:53:25.641Z,9.32
2018-04-27T19:55:53.105Z,8.73
2018-04-27T19:58:20.565Z,7.15
2018-04-27T20:00:48.051Z,18.05
2018-04-27T20:03:15.509Z,10.20
2018-04-27T20:05:43.822Z,18.83
2018-04-27T20:08:11.302Z,18.00
2018-04-27T20:10:38.899Z,15.40
2018-04-27T20:13:06.325Z,12.35
2018-04-27T20:15:38.278Z,16.23
2018-04-27T20:20:57.932Z,7.30
2018-04-27T20:23:26.142Z,9.32
2018-04-27T20:25:53.617Z,14.38
2018-04-27T20:28:21.076Z,11.00
2018-04-27T20:33:39.031Z,8.80
2018-04-27T20:36:07.227Z,18.30
2018-04-27T20:38:34.697Z,67.75
2018-04-27T20:41:02.262Z,20.45
2018-04-27T20:43:29.679Z,22.20
2018-04-27T20:45:57.911Z,22.02
2018-04-27T20:48:26.219Z,11.70
2018-04-27T20:51:15.269Z,11.70
2018-04-27T20:54:00.559Z,9.98
2018-04-27T20:56:28.018Z,13.80
2018-04-27T20:58:55.489Z,7.80
2018-04-27T21:01:22.934Z,10.73
2018-04-27T21:03:53.794Z,7.37
2018-04-27T21:06:22.037Z,6.27
2018-04-27T21:08:49.482Z,5.80
2018-04-27T21:11:16.992Z,7.70
2018-04-27T21:13:44.538Z,6.67
2018-04-27T21:16:12.010Z,8.52
2018-04-27T21:18:39.586Z,12.90
2018-04-27T21:21:07.045Z,9.40
2018-04-27T21:23:34.570Z,9.73
2018-04-27T21:26:02.803Z,8.10
2018-04-27T21:28:31.721Z,7.07
2018-04-27T21:30:59.293Z,10.15
2018-04-27T21:33:27.506Z,9.98
2018-04-27T21:35:55.731Z,7.65
2018-04-27T21:38:46.116Z,8.30
2018-04-27T21:41:32.189Z,6.22
2018-04-27T21:44:06.399Z,8.35
2018-04-27T21:46:33.865Z,8.90
2018-04-27T21:49:02.484Z,6.95
2018-04-27T21:51:34.979Z,10.27
2018-04-27T21:54:05.500Z,14.73
2018-04-27T21:56:32.964Z,16.15
2018-04-27T21:59:07.091Z,20.67
2018-04-27T22:01:34.692Z,12.70
2018-04-27T22:04:04.911Z,17.70
2018-04-27T22:06:32.386Z,24.85
2018-04-27T22:09:07.429Z,23.85
2018-04-27T22:11:40.825Z,17.25
2018-04-27T22:17:27.349Z,11.70
2018-04-27T22:19:54.859Z,11.68
2018-04-27T22:22:22.332Z,10.27
2018-04-27T22:24:52.609Z,7.37
2018-04-27T22:27:24.614Z,8.73
2018-04-27T22:29:56.859Z,13.48
2018-04-27T22:32:25.093Z,20.83
2018-04-27T22:34:57.080Z,46.80
2018-04-27T22:37:24.596Z,59.70
2018-04-27T22:39:52.798Z,46.10
2018-04-27T22:42:31.007Z,35.10
2018-04-27T22:45:13.298Z,29.70
2018-04-27T22:50:34.034Z,14.63
2018-04-27T22:53:01.592Z,12.45
2018-04-27T22:55:29.803Z,10.38
2018-04-27T22:58:09.457Z,8.55
2018-04-27T23:00:44.437Z,12.63
2018-04-27T23:03:12.843Z,13.15
2018-04-27T23:05:40.297Z,11.00
2018-04-27T23:08:08.479Z,9.10
2018-04-27T23:10:43.733Z,11.38
2018-04-27T23:13:23.066Z,8.15
2018-04-27T23:15:51.292Z,10.35
2018-04-27T23:18:19.583Z,15.13
2018-04-27T23:20:49.705Z,9.38
2018-04-27T23:23:17.172Z,12.05
2018-04-27T23:25:51.997Z,11.40
2018-04-27T23:28:19.449Z,11.50
2018-04-27T23:30:47.642Z,15.43
2018-04-27T23:33:15.866Z,12.98
2018-04-27T23:35:46.885Z,15.20
2018-04-27T23:38:15.120Z,10.13
2018-04-27T23:40:42.571Z,12.95
2018-04-27T23:43:11.969Z,15.40
2018-04-27T23:45:39.427Z,11.18
2018-04-27T23:48:07.704Z,12.82
2018-04-27T23:50:35.922Z,9.32
2018-04-27T23:53:03.421Z,12.18
2018-04-27T23:55:30.901Z,12.98
2018-04-27T23:57:58.361Z,10.25
